Time;durP1;ratioP1;P1;durP2;ratioP2;P2;SDS_P1;SDS_P2;PMS_P1;PMS_P2;Temp;Humidity;BMP_temperature;BMP_pressure;BME280_temperature;BME280_humidity;BME280_pressure;Samples;Min_cycle;Max_cycle;Signal;HPM_P1;HPM_P2
2022/03/15 00:00:09;;;;;;;27.08;15.00;;;-0.90;99.90;;;;;;4981552;28;20074;-83
2022/03/15 00:02:36;;;;;;;24.98;13.75;;;-1.00;99.90;;;;;;4999494;28;20070;-83
2022/03/15 00:05:02;;;;;;;54.08;19.02;;;-1.00;99.90;;;;;;4987844;28;20113;-83
2022/03/15 00:07:29;;;;;;;43.20;19.65;;;-1.00;99.90;;;;;;4980494;28;20109;-82
2022/03/15 00:09:56;;;;;;;35.83;18.67;;;-0.70;99.90;;;;;;4978428;28;20481;-82
2022/03/15 00:16:08;;;;;;;28.35;15.27;;;-0.70;99.90;;;;;;5006708;26;20049;-85
2022/03/15 00:18:35;;;;;;;40.55;16.80;;;-0.80;99.90;;;;;;5014270;28;20132;-85
2022/03/15 00:21:04;;;;;;;28.52;13.40;;;-0.80;99.90;;;;;;5014094;28;20570;-86
2022/03/15 00:23:31;;;;;;;29.52;14.85;;;-0.90;99.90;;;;;;5014326;28;20046;-85
2022/03/15 00:26:00;;;;;;;29.88;15.02;;;-0.90;99.90;;;;;;5061419;23;20077;-92
2022/03/15 00:28:28;;;;;;;31.70;14.63;;;-1.00;99.90;;;;;;5036116;28;20053;-92
2022/03/15 00:30:55;;;;;;;31.60;15.60;;;-1.20;99.90;;;;;;5036426;28;20480;-92
2022/03/15 00:33:25;;;;;;;28.30;13.55;;;-1.10;99.90;;;;;;5053881;28;20053;-92
2022/03/15 00:35:53;;;;;;;28.60;14.95;;;-1.20;99.90;;;;;;5044397;28;20140;-92
2022/03/15 00:38:21;;;;;;;27.98;13.35;;;-1.20;99.90;;;;;;5038352;28;20132;-92
2022/03/15 00:40:48;;;;;;;25.48;13.25;;;-1.20;99.90;;;;;;5036352;28;20119;-91
2022/03/15 00:43:15;;;;;;;23.40;12.55;;;-1.20;99.90;;;;;;5035921;28;20389;-92
2022/03/15 00:45:42;;;;;;;28.77;14.57;;;-1.20;99.90;;;;;;5035517;28;20063;-91
2022/03/15 00:48:09;;;;;;;27.13;13.48;;;-1.20;99.90;;;;;;5036027;28;20045;-92
2022/03/15 00:50:40;;;;;;;25.02;13.50;;;-1.30;99.90;;;;;;5036049;28;20053;-91
2022/03/15 00:53:08;;;;;;;32.88;13.93;;;-1.30;99.90;;;;;;5036088;28;20122;-92
2022/03/15 00:55:36;;;;;;;26.60;12.93;;;-1.30;99.90;;;;;;5035828;28;20053;-92
2022/03/15 00:58:03;;;;;;;25.10;12.63;;;-1.30;99.90;;;;;;5035717;28;20061;-92
2022/03/15 01:00:31;;;;;;;25.58;13.20;;;-1.30;99.90;;;;;;5035639;28;20132;-93
2022/03/15 01:02:58;;;;;;;25.92;12.98;;;-1.30;99.90;;;;;;5036207;28;20085;-92
2022/03/15 01:05:25;;;;;;;25.05;12.63;;;-1.30;99.90;;;;;;5051085;22;20037;-91
2022/03/15 01:07:52;;;;;;;27.13;12.70;;;-1.30;99.90;;;;;;5036041;28;20045;-91
2022/03/15 01:10:20;;;;;;;24.63;12.68;;;-1.40;99.90;;;;;;5035739;28;20132;-91
2022/03/15 01:12:46;;;;;;;27.35;13.02;;;-1.40;99.90;;;;;;5053260;28;20049;-92
2022/03/15 01:15:13;;;;;;;28.35;13.00;;;-1.40;99.90;;;;;;5052887;28;20144;-92
2022/03/15 01:17:40;;;;;;;23.63;12.35;;;-1.40;99.90;;;;;;5035687;28;20053;-92
2022/03/15 01:20:08;;;;;;;25.10;12.93;;;-1.40;99.90;;;;;;5035699;28;20044;-92
2022/03/15 01:22:35;;;;;;;23.80;12.98;;;-1.40;99.90;;;;;;5053606;28;20158;-92
2022/03/15 01:25:02;;;;;;;27.20;12.60;;;-1.50;99.90;;;;;;5035518;28;20049;-91
2022/03/15 01:27:28;;;;;;;23.85;12.63;;;-1.60;99.90;;;;;;5038603;28;20575;-92
2022/03/15 01:29:57;;;;;;;27.42;13.45;;;-1.50;99.90;;;;;;5039807;28;20497;-92
2022/03/15 01:32:24;;;;;;;30.73;13.63;;;-1.40;99.90;;;;;;5039618;28;20048;-92
2022/03/15 01:34:51;;;;;;;26.65;13.05;;;-1.50;99.90;;;;;;5039849;28;20154;-92
2022/03/15 01:37:19;;;;;;;23.05;12.63;;;-1.40;99.90;;;;;;5039662;28;20499;-92
2022/03/15 01:39:45;;;;;;;25.67;12.55;;;-1.40;99.90;;;;;;5039445;28;20045;-92
2022/03/15 01:42:12;;;;;;;23.45;12.55;;;-1.40;99.90;;;;;;5039333;28;20148;-92
2022/03/15 01:44:46;;;;;;;30.58;12.75;;;-1.40;99.90;;;;;;5039757;28;20045;-92
2022/03/15 01:47:13;;;;;;;29.35;13.18;;;-1.50;99.90;;;;;;5039843;28;20053;-92
2022/03/15 01:49:41;;;;;;;21.67;11.57;;;-1.60;99.90;;;;;;5046990;28;20076;-92
2022/03/15 01:52:13;;;;;;;36.03;14.40;;;-1.50;99.90;;;;;;5045849;28;20127;-92
2022/03/15 01:54:40;;;;;;;27.15;12.70;;;-1.40;99.90;;;;;;5039569;28;20083;-92
2022/03/15 01:57:08;;;;;;;28.00;12.40;;;-1.50;99.90;;;;;;5038975;28;20047;-92
2022/03/15 01:59:36;;;;;;;21.33;12.35;;;-1.50;99.90;;;;;;5039251;28;20136;-90
2022/03/15 02:02:03;;;;;;;23.27;12.25;;;-1.50;99.90;;;;;;5039360;28;20089;-92
2022/03/15 02:04:32;;;;;;;24.30;12.48;;;-1.40;99.90;;;;;;5039373;28;20154;-91
2022/03/15 02:07:02;;;;;;;22.77;12.90;;;-1.40;99.90;;;;;;5038699;28;20106;-92
2022/03/15 02:09:29;;;;;;;24.75;13.07;;;-1.40;99.90;;;;;;5039218;28;20155;-93
2022/03/15 02:11:57;;;;;;;28.10;13.30;;;-1.40;99.90;;;;;;5039327;28;20049;-92
2022/03/15 02:14:25;;;;;;;22.65;12.13;;;-1.40;99.90;;;;;;5039134;28;20144;-92
2022/03/15 02:16:52;;;;;;;25.77;12.95;;;-1.30;99.90;;;;;;5039270;28;20049;-92
2022/03/15 02:19:19;;;;;;;22.40;12.52;;;-1.30;99.90;;;;;;5039022;28;20053;-92
2022/03/15 02:21:47;;;;;;;22.42;12.43;;;-1.30;99.90;;;;;;5038995;28;20080;-92
2022/03/15 02:24:14;;;;;;;23.40;11.75;;;-1.40;99.90;;;;;;5038959;28;20070;-92
2022/03/15 02:26:41;;;;;;;26.00;11.80;;;-1.40;99.90;;;;;;5038983;28;20080;-91
2022/03/15 02:29:08;;;;;;;30.92;13.07;;;-1.30;99.90;;;;;;5038612;28;20048;-92
2022/03/15 02:31:35;;;;;;;25.95;12.23;;;-1.40;99.90;;;;;;5038583;28;20492;-92
2022/03/15 02:34:06;;;;;;;26.45;13.20;;;-1.30;99.90;;;;;;5038970;28;20068;-91
2022/03/15 02:36:32;;;;;;;27.55;13.98;;;-1.30;99.90;;;;;;5038260;28;20067;-92
2022/03/15 02:38:59;;;;;;;26.52;12.85;;;-1.30;99.90;;;;;;5037949;28;20562;-92
2022/03/15 02:41:26;;;;;;;29.45;13.07;;;-1.40;99.90;;;;;;5038371;28;20078;-91
2022/03/15 02:43:56;;;;;;;25.13;12.57;;;-1.40;99.90;;;;;;5038708;28;20055;-91
2022/03/15 02:46:30;;;;;;;26.58;12.40;;;-1.30;99.90;;;;;;5038410;28;20555;-92
2022/03/15 02:48:58;;;;;;;27.48;13.25;;;-1.30;99.90;;;;;;5038441;28;20045;-92
2022/03/15 02:51:25;;;;;;;24.77;12.75;;;-1.40;99.90;;;;;;5038027;28;20056;-91
2022/03/15 02:53:53;;;;;;;24.85;12.02;;;-1.30;99.90;;;;;;5038202;28;20485;-92
2022/03/15 02:56:21;;;;;;;23.20;12.18;;;-1.30;99.90;;;;;;5038380;28;20057;-92
2022/03/15 02:58:48;;;;;;;29.15;13.55;;;-1.20;99.90;;;;;;5037811;28;20083;-91
2022/03/15 03:01:16;;;;;;;22.42;11.63;;;-1.20;99.90;;;;;;5037689;28;20127;-91
2022/03/15 03:03:43;;;;;;;27.17;12.13;;;-1.30;99.90;;;;;;5041518;28;20053;-92
2022/03/15 03:06:10;;;;;;;22.95;11.70;;;-1.30;99.90;;;;;;5048514;28;20116;-91
2022/03/15 03:08:36;;;;;;;22.02;11.88;;;-1.30;99.90;;;;;;5038907;28;20143;-92
2022/03/15 03:11:03;;;;;;;19.98;11.00;;;-1.30;99.90;;;;;;5037868;28;20220;-92
2022/03/15 03:13:30;;;;;;;29.63;12.75;;;-1.30;99.90;;;;;;5037912;28;20139;-92
2022/03/15 03:16:00;;;;;;;17.63;10.38;;;-1.30;99.90;;;;;;5037540;28;20075;-91
2022/03/15 03:18:32;;;;;;;19.42;10.57;;;-1.30;99.90;;;;;;5037608;28;20076;-91
2022/03/15 03:21:01;;;;;;;20.83;10.80;;;-1.30;99.90;;;;;;5037865;28;20048;-92
2022/03/15 03:23:29;;;;;;;22.02;11.05;;;-1.30;99.90;;;;;;5037834;28;20053;-92
2022/03/15 03:25:56;;;;;;;20.33;11.32;;;-1.30;99.90;;;;;;5037529;28;20045;-91
2022/03/15 03:28:23;;;;;;;20.70;11.90;;;-1.20;99.90;;;;;;5037564;28;20107;-92
2022/03/15 03:30:50;;;;;;;21.83;10.48;;;-1.30;99.90;;;;;;5037687;28;20153;-92
2022/03/15 03:33:22;;;;;;;17.48;10.38;;;-1.30;99.90;;;;;;5037337;28;20555;-92
2022/03/15 03:35:49;;;;;;;24.38;10.88;;;-1.30;99.90;;;;;;5037304;28;20076;-91
2022/03/15 03:38:17;;;;;;;18.38;10.50;;;-1.40;99.90;;;;;;5037021;28;20072;-92
2022/03/15 03:40:44;;;;;;;18.42;10.40;;;-1.40;99.90;;;;;;5037092;28;20644;-92
2022/03/15 03:43:11;;;;;;;20.83;10.32;;;-1.40;99.90;;;;;;5037112;28;20057;-91
2022/03/15 03:45:38;;;;;;;20.10;9.90;;;-1.40;99.90;;;;;;5037140;28;20124;-92
2022/03/15 03:48:06;;;;;;;17.73;10.30;;;-1.30;99.90;;;;;;5037085;28;20160;-92
2022/03/15 03:50:33;;;;;;;21.95;11.77;;;-1.30;99.90;;;;;;5036262;28;20044;-92
2022/03/15 03:53:00;;;;;;;19.05;10.50;;;-1.40;99.90;;;;;;5037414;28;20132;-92
2022/03/15 03:55:27;;;;;;;23.08;10.68;;;-1.50;99.90;;;;;;5036894;28;20063;-92
2022/03/15 03:57:54;;;;;;;20.38;11.00;;;-1.40;99.90;;;;;;5036866;28;20053;-92
2022/03/15 04:00:21;;;;;;;23.13;11.50;;;-1.40;99.90;;;;;;5036992;28;20055;-92
2022/03/15 04:02:48;;;;;;;22.42;10.57;;;-1.40;99.90;;;;;;5037289;28;20530;-92
2022/03/15 04:05:15;;;;;;;17.40;9.95;;;-1.40;99.90;;;;;;5037280;28;20550;-92
2022/03/15 04:07:43;;;;;;;23.35;11.63;;;-1.40;99.90;;;;;;5036921;28;20049;-92
2022/03/15 04:10:10;;;;;;;28.65;12.45;;;-1.50;99.90;;;;;;5036919;28;20053;-92
2022/03/15 04:12:38;;;;;;;21.95;11.18;;;-1.50;99.90;;;;;;5037216;28;20045;-92
2022/03/15 04:15:06;;;;;;;21.30;11.15;;;-1.50;99.90;;;;;;5037375;28;20057;-92
2022/03/15 04:17:33;;;;;;;24.45;11.27;;;-1.40;99.90;;;;;;5037974;28;20132;-92
2022/03/15 04:19:59;;;;;;;25.13;11.55;;;-1.40;99.90;;;;;;5045734;28;20084;-92
2022/03/15 04:22:26;;;;;;;19.48;11.10;;;-1.40;99.90;;;;;;5039411;28;20053;-92
2022/03/15 04:24:53;;;;;;;22.65;10.88;;;-1.40;99.90;;;;;;5036664;28;20055;-92
2022/03/15 04:27:20;;;;;;;22.70;10.98;;;-1.40;99.90;;;;;;5036688;28;20140;-92
2022/03/15 04:29:46;;;;;;;20.27;10.65;;;-1.40;99.90;;;;;;5036624;28;20131;-92
2022/03/15 04:32:14;;;;;;;27.27;11.40;;;-1.40;99.90;;;;;;5036431;28;20140;-92
2022/03/15 04:34:41;;;;;;;23.88;11.10;;;-1.40;99.90;;;;;;5036298;28;20052;-92
2022/03/15 04:37:07;;;;;;;19.65;10.02;;;-1.30;99.90;;;;;;5036293;28;20048;-92
2022/03/15 04:39:34;;;;;;;22.80;11.20;;;-1.30;99.90;;;;;;5036591;28;20135;-92
2022/03/15 04:42:02;;;;;;;21.77;11.18;;;-1.20;99.90;;;;;;5036553;28;20485;-92
2022/03/15 04:44:29;;;;;;;19.27;10.13;;;-1.20;99.90;;;;;;5036755;28;20059;-92
2022/03/15 04:46:56;;;;;;;19.77;10.88;;;-1.20;99.90;;;;;;5036402;28;20052;-92
2022/03/15 04:49:23;;;;;;;25.45;11.77;;;-1.20;99.90;;;;;;5036498;28;20045;-92
2022/03/15 04:51:50;;;;;;;19.85;11.20;;;-1.20;99.90;;;;;;5036015;28;20052;-92
2022/03/15 04:54:17;;;;;;;19.52;11.30;;;-1.10;99.90;;;;;;5036184;28;20057;-92
2022/03/15 04:56:43;;;;;;;21.33;12.05;;;-1.10;99.90;;;;;;5036560;28;20127;-92
2022/03/15 04:59:10;;;;;;;24.38;12.48;;;-1.20;99.90;;;;;;5036134;28;20511;-92
2022/03/15 05:01:37;;;;;;;19.63;12.98;;;-1.20;99.90;;;;;;5035645;28;20075;-92
2022/03/15 05:04:04;;;;;;;24.73;12.07;;;-1.20;99.90;;;;;;5036255;28;20069;-93
2022/03/15 05:06:31;;;;;;;23.20;11.98;;;-1.20;99.90;;;;;;5035599;28;20055;-92
2022/03/15 05:08:57;;;;;;;19.13;10.30;;;-1.20;99.90;;;;;;5035962;28;20059;-92
2022/03/15 05:11:28;;;;;;;23.00;11.50;;;-1.20;99.90;;;;;;5035960;28;20140;-92
2022/03/15 05:13:54;;;;;;;18.48;10.90;;;-1.30;99.90;;;;;;5036031;28;20064;-92
2022/03/15 05:16:22;;;;;;;20.05;10.75;;;-1.20;99.90;;;;;;5035884;28;20055;-92
2022/03/15 05:18:54;;;;;;;18.15;10.13;;;-1.30;99.90;;;;;;5035984;28;20071;-92
2022/03/15 05:21:24;;;;;;;19.67;11.40;;;-1.20;99.90;;;;;;5036132;28;20055;-92
2022/03/15 05:23:53;;;;;;;30.17;12.75;;;-1.10;99.90;;;;;;5035847;28;20057;-93
2022/03/15 05:26:21;;;;;;;22.05;11.13;;;-1.20;99.90;;;;;;5036126;28;20048;-92
2022/03/15 05:28:49;;;;;;;21.40;10.88;;;-1.10;99.90;;;;;;5035960;28;20049;-92
2022/03/15 05:31:17;;;;;;;20.45;11.88;;;-1.20;99.90;;;;;;5035761;28;20041;-92
2022/03/15 05:33:46;;;;;;;20.73;10.80;;;-1.20;99.90;;;;;;5041817;28;20076;-93
2022/03/15 05:36:13;;;;;;;23.17;11.52;;;-1.20;99.90;;;;;;5040996;28;20120;-93
2022/03/15 05:38:41;;;;;;;19.77;11.38;;;-1.20;99.90;;;;;;5035798;28;20390;-93
2022/03/15 05:41:08;;;;;;;27.85;12.50;;;-1.20;99.90;;;;;;5035494;28;20412;-92
2022/03/15 05:43:52;;;;;;;37.33;17.10;;;-1.10;99.90;;;;;;5038278;28;20139;-94
2022/03/15 05:46:19;;;;;;;23.42;13.40;;;-1.00;99.90;;;;;;5035804;28;20113;-94
2022/03/15 05:48:47;;;;;;;22.38;11.50;;;-0.90;99.90;;;;;;5035619;28;20044;-94
2022/03/15 05:51:13;;;;;;;25.33;12.10;;;-0.80;99.90;;;;;;5035972;28;20136;-94
2022/03/15 05:53:40;;;;;;;24.63;11.38;;;-0.90;99.90;;;;;;5035663;28;20515;-94
2022/03/15 05:56:07;;;;;;;28.45;13.20;;;-0.90;99.90;;;;;;5035642;28;20073;-94
2022/03/15 05:58:35;;;;;;;25.48;12.10;;;-0.90;99.90;;;;;;5035276;28;20053;-93
2022/03/15 06:01:02;;;;;;;20.73;10.95;;;-0.80;99.90;;;;;;5035534;28;20049;-94
2022/03/15 06:03:30;;;;;;;25.30;13.82;;;-0.70;99.90;;;;;;5036028;28;20045;-92
2022/03/15 06:05:56;;;;;;;28.98;13.98;;;-0.70;99.90;;;;;;5035494;28;20057;-94
2022/03/15 06:08:23;;;;;;;30.35;13.05;;;-0.70;99.90;;;;;;5035563;28;20136;-94
2022/03/15 06:10:50;;;;;;;25.52;13.00;;;-0.70;99.90;;;;;;5035299;28;20072;-93
2022/03/15 06:13:17;;;;;;;23.92;12.48;;;-0.60;99.90;;;;;;5036106;28;20059;-93
2022/03/15 06:15:44;;;;;;;26.70;13.65;;;-0.40;99.90;;;;;;5039518;28;20051;-93
2022/03/15 06:18:11;;;;;;;24.02;13.45;;;-0.30;99.90;;;;;;5039243;28;20067;-93
2022/03/15 06:20:38;;;;;;;26.15;13.23;;;-0.20;99.90;;;;;;5039263;28;20049;-93
2022/03/15 06:23:05;;;;;;;22.27;12.48;;;-0.10;99.90;;;;;;5056273;28;20140;-93
2022/03/15 06:25:31;;;;;;;27.27;13.40;;;0.00;99.90;;;;;;5039044;28;20053;-93
2022/03/15 06:27:59;;;;;;;35.83;15.35;;;0.00;99.90;;;;;;5039059;28;20060;-92
2022/03/15 06:30:26;;;;;;;22.20;13.05;;;0.10;99.90;;;;;;5038724;28;20144;-93
2022/03/15 06:32:53;;;;;;;24.80;12.82;;;0.20;99.90;;;;;;5039096;28;20049;-93
2022/03/15 06:35:20;;;;;;;27.80;13.45;;;0.20;99.90;;;;;;5038692;28;20053;-92
2022/03/15 06:37:49;;;;;;;24.20;13.32;;;0.30;99.90;;;;;;5038716;28;20132;-93
2022/03/15 06:40:25;;;;;;;27.20;13.88;;;0.40;99.90;;;;;;5038636;28;20060;-93
2022/03/15 06:42:53;;;;;;;36.78;16.58;;;0.50;99.90;;;;;;5037702;28;20055;-93
2022/03/15 06:45:20;;;;;;;38.97;14.57;;;0.60;99.90;;;;;;5038733;28;20059;-92
2022/03/15 06:47:47;;;;;;;30.13;13.95;;;0.60;99.90;;;;;;5044910;28;20049;-93
2022/03/15 06:50:14;;;;;;;32.65;16.15;;;0.40;99.90;;;;;;5045902;28;20560;-94
2022/03/15 06:52:42;;;;;;;36.75;18.10;;;0.40;99.90;;;;;;5038467;28;20041;-91
2022/03/15 06:55:11;;;;;;;38.30;18.30;;;0.40;99.90;;;;;;5038326;28;20508;-93
2022/03/15 06:57:39;;;;;;;41.40;16.60;;;0.50;99.90;;;;;;5038700;28;20449;-92
2022/03/15 07:00:13;;;;;;;34.75;16.75;;;0.70;99.90;;;;;;5038204;28;20136;-92
2022/03/15 07:02:40;;;;;;;29.40;16.02;;;0.80;99.90;;;;;;5038321;28;20584;-92
2022/03/15 07:05:08;;;;;;;34.05;13.80;;;0.80;99.90;;;;;;5038072;28;20053;-92
2022/03/15 07:07:36;;;;;;;34.53;15.65;;;1.00;99.90;;;;;;5037917;28;20053;-92
2022/03/15 07:10:05;;;;;;;34.95;16.20;;;1.00;99.90;;;;;;5038034;28;20052;-92
2022/03/15 07:12:33;;;;;;;36.58;16.45;;;0.80;99.90;;;;;;5038009;28;20057;-91
2022/03/15 07:15:02;;;;;;;49.75;19.90;;;1.00;99.90;;;;;;5038019;28;20049;-91
2022/03/15 07:17:32;;;;;;;57.50;21.23;;;1.30;99.90;;;;;;5037845;28;20076;-91
2022/03/15 07:20:00;;;;;;;56.97;22.48;;;1.60;99.90;;;;;;5037380;28;20053;-91
2022/03/15 07:22:27;;;;;;;56.83;24.55;;;1.70;99.90;;;;;;5037856;28;20098;-91
2022/03/15 07:24:54;;;;;;;29.05;16.92;;;2.00;99.90;;;;;;5037859;28;20479;-91
2022/03/15 07:27:21;;;;;;;39.08;20.25;;;2.10;99.90;;;;;;5038245;28;20052;-90
2022/03/15 07:29:48;;;;;;;41.20;19.75;;;2.30;99.90;;;;;;5037897;28;20063;-90
2022/03/15 07:32:14;;;;;;;45.70;22.70;;;2.30;99.90;;;;;;5037522;28;20124;-90
2022/03/15 07:34:41;;;;;;;64.45;30.67;;;2.20;99.90;;;;;;5037067;28;20052;-90
2022/03/15 07:37:08;;;;;;;46.15;27.25;;;2.30;99.90;;;;;;5037495;28;20045;-90
2022/03/15 07:39:34;;;;;;;55.97;29.60;;;2.40;99.90;;;;;;5037547;28;20137;-89
2022/03/15 07:42:01;;;;;;;49.80;25.73;;;2.70;99.90;;;;;;5037594;28;20156;-89
2022/03/15 07:44:28;;;;;;;43.70;23.60;;;2.90;99.90;;;;;;5037211;28;20492;-91
2022/03/15 07:46:55;;;;;;;43.28;20.58;;;2.70;99.90;;;;;;5033621;28;20127;-90
2022/03/15 07:49:22;;;;;;;36.50;18.90;;;2.60;99.90;;;;;;5026694;28;20049;-90
2022/03/15 07:51:50;;;;;;;54.53;22.35;;;2.60;99.90;;;;;;5025976;28;20132;-90
2022/03/15 07:54:17;;;;;;;49.45;22.65;;;2.90;99.90;;;;;;5020132;28;20049;-90
2022/03/15 07:56:45;;;;;;;42.42;22.30;;;2.70;99.90;;;;;;5017563;28;20056;-90
2022/03/15 07:59:11;;;;;;;37.30;20.95;;;2.50;99.90;;;;;;5018457;28;20111;-89
2022/03/15 08:01:38;;;;;;;44.80;23.73;;;2.80;99.90;;;;;;5018864;28;20056;-91
2022/03/15 08:04:05;;;;;;;33.70;18.85;;;3.10;99.90;;;;;;5023534;28;20563;-91
2022/03/15 08:06:35;;;;;;;34.60;19.90;;;3.50;99.90;;;;;;5017892;28;20045;-91
2022/03/15 08:09:03;;;;;;;41.33;23.00;;;3.70;99.90;;;;;;5018009;28;20504;-91
2022/03/15 08:11:30;;;;;;;49.28;25.58;;;3.90;99.90;;;;;;5017116;28;20485;-90
2022/03/15 08:13:58;;;;;;;44.40;30.17;;;3.90;99.90;;;;;;5017056;28;20489;-89
2022/03/15 08:16:25;;;;;;;39.83;21.77;;;3.70;99.90;;;;;;5017039;28;20072;-90
2022/03/15 08:18:53;;;;;;;36.55;22.50;;;3.90;99.90;;;;;;5017017;28;20050;-90
2022/03/15 08:21:22;;;;;;;44.55;23.15;;;4.20;99.90;;;;;;5017040;28;20049;-90
2022/03/15 08:23:49;;;;;;;41.33;22.30;;;4.50;99.90;;;;;;5016990;28;20045;-90
2022/03/15 08:26:16;;;;;;;43.50;22.30;;;5.00;99.90;;;;;;5016804;28;20064;-90
2022/03/15 08:28:45;;;;;;;30.00;16.00;;;5.20;99.90;;;;;;5016682;28;20061;-90
2022/03/15 08:31:12;;;;;;;26.38;12.52;;;5.40;99.90;;;;;;5016710;28;20140;-90
2022/03/15 08:33:38;;;;;;;16.30;10.15;;;5.40;99.90;;;;;;5016745;28;20549;-90
2022/03/15 08:36:06;;;;;;;13.23;8.68;;;5.60;99.90;;;;;;5016235;28;20073;-90
2022/03/15 08:38:32;;;;;;;17.15;9.73;;;5.60;99.90;;;;;;5016824;28;20060;-90
2022/03/15 08:40:59;;;;;;;16.17;8.98;;;6.10;99.90;;;;;;5016404;28;20049;-90
2022/03/15 08:43:26;;;;;;;15.18;8.43;;;6.40;99.90;;;;;;5020069;28;20050;-90
2022/03/15 08:45:53;;;;;;;15.30;8.57;;;6.70;99.90;;;;;;5016565;28;20053;-90
2022/03/15 08:48:20;;;;;;;17.17;8.75;;;6.90;99.90;;;;;;5016310;28;20053;-90
2022/03/15 08:50:47;;;;;;;17.40;8.57;;;7.10;99.90;;;;;;5016549;28;20056;-90
2022/03/15 08:53:14;;;;;;;28.77;15.52;;;7.40;99.90;;;;;;5016193;28;20405;-89
2022/03/15 08:55:41;;;;;;;24.10;14.38;;;6.80;99.90;;;;;;5016824;28;20408;-89
2022/03/15 08:58:08;;;;;;;15.82;8.75;;;6.80;99.90;;;;;;5015694;28;20042;-90
2022/03/15 09:00:35;;;;;;;13.40;6.78;;;7.30;99.90;;;;;;5033407;28;20063;-89
2022/03/15 09:03:02;;;;;;;8.63;5.15;;;7.60;99.90;;;;;;5016562;28;20050;-90
2022/03/15 09:05:29;;;;;;;8.75;5.03;;;8.10;99.90;;;;;;5016364;28;20045;-90
2022/03/15 09:07:56;;;;;;;11.80;7.10;;;8.20;99.90;;;;;;5016103;28;20053;-90
2022/03/15 09:10:24;;;;;;;32.63;21.20;;;8.00;99.90;;;;;;5015036;28;20049;-90
2022/03/15 09:12:53;;;;;;;19.75;10.63;;;8.00;99.90;;;;;;5016014;28;20053;-89
2022/03/15 09:15:22;;;;;;;32.08;17.85;;;8.40;99.90;;;;;;5034226;28;20076;-90
2022/03/15 09:17:49;;;;;;;24.25;14.02;;;8.00;99.90;;;;;;5040074;28;20187;-90
2022/03/15 09:20:23;;;;;;;15.77;8.50;;;8.20;99.90;;;;;;5018670;28;20108;-90
2022/03/15 09:22:50;;;;;;;15.43;8.57;;;8.80;99.90;;;;;;5015788;28;20045;-89
2022/03/15 09:25:17;;;;;;;14.60;8.52;;;8.90;99.90;;;;;;5032991;28;20147;-90
2022/03/15 09:27:46;;;;;;;13.07;7.20;;;9.10;99.90;;;;;;5016086;28;20120;-90
2022/03/15 09:30:13;;;;;;;22.85;19.02;;;9.50;99.90;;;;;;5015906;28;20045;-90
2022/03/15 09:32:40;;;;;;;12.27;7.93;;;10.00;99.90;;;;;;5033445;28;20161;-90
2022/03/15 09:35:08;;;;;;;13.07;7.43;;;10.10;99.90;;;;;;5032495;28;20519;-90
2022/03/15 09:37:36;;;;;;;12.60;9.18;;;10.50;99.90;;;;;;5015754;28;20096;-90
2022/03/15 09:40:08;;;;;;;19.48;12.95;;;10.90;99.90;;;;;;5016186;28;20504;-90
2022/03/15 09:42:36;;;;;;;12.95;7.90;;;10.30;99.90;;;;;;5016051;28;20468;-90
2022/03/15 09:45:04;;;;;;;9.82;7.85;;;10.40;99.90;;;;;;5015682;28;20049;-90
2022/03/15 09:47:35;;;;;;;9.68;5.15;;;10.40;99.90;;;;;;5015566;28;20084;-89
2022/03/15 09:50:06;;;;;;;6.97;4.78;;;10.60;99.90;;;;;;5019387;28;20489;-89
2022/03/15 09:52:34;;;;;;;11.50;5.97;;;10.00;99.90;;;;;;5019589;28;20088;-89
2022/03/15 09:55:03;;;;;;;16.85;4.30;;;9.80;99.90;;;;;;5019504;28;20115;-89
2022/03/15 09:57:31;;;;;;;7.32;4.65;;;9.80;99.90;;;;;;5036751;28;20080;-89
2022/03/15 10:00:01;;;;;;;7.05;6.00;;;9.60;99.90;;;;;;5019080;28;20493;-89
2022/03/15 10:02:28;;;;;;;19.83;9.60;;;10.00;99.90;;;;;;5019094;28;20053;-89
2022/03/15 10:05:01;;;;;;;6.38;3.55;;;10.10;99.90;;;;;;5019947;28;20390;-89
2022/03/15 10:07:28;;;;;;;6.80;3.08;;;10.40;99.90;;;;;;5019009;28;20053;-89
2022/03/15 10:09:54;;;;;;;6.38;2.83;;;10.20;99.90;;;;;;5018951;28;20053;-89
2022/03/15 10:12:21;;;;;;;4.88;3.55;;;11.00;99.90;;;;;;5018932;28;20132;-89
2022/03/15 10:14:49;;;;;;;9.15;4.00;;;11.10;99.90;;;;;;5019061;28;20053;-89
2022/03/15 10:17:16;;;;;;;8.35;4.43;;;11.70;99.90;;;;;;5018754;28;20156;-89
2022/03/15 10:19:56;;;;;;;12.30;3.70;;;11.40;99.90;;;;;;5036209;28;20050;-89
2022/03/15 10:22:24;;;;;;;11.68;5.00;;;11.20;99.90;;;;;;5019282;28;20136;-90
2022/03/15 10:24:51;;;;;;;16.23;10.38;;;11.60;99.90;;;;;;5018944;28;20045;-90
2022/03/15 10:27:19;;;;;;;7.97;3.15;;;11.90;99.90;;;;;;5019176;28;20054;-89
2022/03/15 10:29:47;;;;;;;4.40;3.22;;;12.40;99.90;;;;;;5019262;28;20136;-89
2022/03/15 10:32:15;;;;;;;6.60;3.60;;;12.70;99.90;;;;;;5045926;28;20437;-89
2022/03/15 10:34:43;;;;;;;4.28;3.65;;;13.70;99.90;;;;;;5021753;28;20152;-89
2022/03/15 10:37:11;;;;;;;4.80;3.83;;;13.90;99.90;;;;;;5036528;28;20140;-89
2022/03/15 10:39:39;;;;;;;7.30;3.83;;;13.80;99.90;;;;;;5018606;28;20136;-89
2022/03/15 10:42:08;;;;;;;24.98;5.20;;;13.50;99.90;;;;;;5018585;28;20071;-89
2022/03/15 10:44:38;;;;;;;29.55;5.15;;;12.80;99.90;;;;;;5018985;28;20068;-89
2022/03/15 10:47:14;;;;;;;6.82;3.03;;;12.60;99.90;;;;;;5018861;28;20060;-89
2022/03/15 10:50:00;;;;;;;8.45;3.50;;;12.70;99.90;;;;;;5018910;28;20056;-90
2022/03/15 10:52:41;;;;;;;9.27;3.60;;;12.80;99.90;;;;;;5018449;28;20065;-90
2022/03/15 10:55:29;;;;;;;11.45;3.50;;;12.30;99.90;;;;;;5018642;28;20140;-89
2022/03/15 10:58:02;;;;;;;4.80;2.92;;;12.50;99.90;;;;;;5018651;28;20128;-89
2022/03/15 11:00:37;;;;;;;5.57;4.20;;;12.80;99.90;;;;;;5017513;28;20409;-90
2022/03/15 11:03:13;;;;;;;15.02;4.20;;;12.90;99.90;;;;;;5018436;28;20409;-89
2022/03/15 11:05:41;;;;;;;3.88;3.47;;;13.10;99.90;;;;;;5018252;28;20072;-89
2022/03/15 11:08:10;;;;;;;10.30;3.83;;;12.60;99.90;;;;;;5018527;28;20055;-89
2022/03/15 11:10:39;;;;;;;17.88;3.78;;;12.40;99.90;;;;;;5018031;28;20505;-89
2022/03/15 11:13:13;;;;;;;8.52;3.63;;;12.80;99.90;;;;;;5018195;28;20062;-90
2022/03/15 11:15:47;;;;;;;25.80;6.15;;;13.10;99.90;;;;;;5018358;28;20488;-89
2022/03/15 11:18:15;;;;;;;11.82;4.43;;;13.30;99.90;;;;;;5018387;28;20050;-89
2022/03/15 11:20:44;;;;;;;11.85;6.00;;;13.10;99.90;;;;;;5017688;28;20136;-89
2022/03/15 11:23:18;;;;;;;34.20;7.45;;;12.60;99.90;;;;;;5018659;28;20056;-89
2022/03/15 11:25:49;;;;;;;13.35;5.28;;;12.60;99.90;;;;;;5018062;28;20490;-89
2022/03/15 11:28:27;;;;;;;19.52;6.03;;;12.10;99.90;;;;;;5016882;28;20060;-89
2022/03/15 11:30:56;;;;;;;10.18;5.55;;;12.30;99.90;;;;;;5035143;28;20052;-89
2022/03/15 11:33:25;;;;;;;10.73;5.65;;;12.00;99.90;;;;;;5018049;28;20091;-89
2022/03/15 11:35:52;;;;;;;9.15;5.75;;;11.80;99.90;;;;;;5034760;28;20049;-89
2022/03/15 11:38:20;;;;;;;11.18;5.40;;;11.80;99.90;;;;;;5017474;28;20049;-89
2022/03/15 11:40:54;;;;;;;7.40;5.60;;;12.10;99.90;;;;;;5017483;28;20053;-89
2022/03/15 11:43:27;;;;;;;15.00;6.05;;;12.00;99.90;;;;;;5017709;28;20045;-89
2022/03/15 11:46:06;;;;;;;11.85;5.90;;;11.90;99.90;;;;;;5020912;28;20507;-89
2022/03/15 11:49:04;;;;;;;9.20;5.75;;;11.80;99.90;;;;;;5024117;28;20053;-90
2022/03/15 11:51:47;;;;;;;14.57;7.97;;;11.60;99.90;;;;;;5017466;28;20057;-89
2022/03/15 11:54:47;;;;;;;10.15;5.78;;;11.60;99.90;;;;;;5017379;28;20511;-90
2022/03/15 11:57:30;;;;;;;6.07;5.47;;;11.70;99.90;;;;;;5017139;28;20080;-89
2022/03/15 11:59:57;;;;;;;11.17;7.00;;;11.70;99.90;;;;;;5017202;28;20055;-89
2022/03/15 12:02:40;;;;;;;10.30;5.68;;;11.60;99.90;;;;;;5034447;28;20132;-89
2022/03/15 12:05:17;;;;;;;14.98;7.25;;;11.40;99.90;;;;;;5034193;28;20081;-89
2022/03/15 12:07:46;;;;;;;12.93;6.00;;;11.30;99.90;;;;;;5017410;28;20045;-89
2022/03/15 12:10:24;;;;;;;8.23;5.60;;;11.20;99.90;;;;;;5016740;28;20493;-89
2022/03/15 12:13:13;;;;;;;16.45;5.97;;;11.10;99.90;;;;;;5020017;28;20053;-89
2022/03/15 12:15:44;;;;;;;8.98;6.60;;;11.00;99.90;;;;;;5016812;28;20492;-89
2022/03/15 12:21:07;;;;;;;10.95;6.40;;;10.80;99.90;;;;;;5034314;28;20055;-89
2022/03/15 12:23:44;;;;;;;10.63;6.55;;;10.80;99.90;;;;;;5015980;28;20084;-89
2022/03/15 12:26:29;;;;;;;19.08;6.90;;;10.80;99.90;;;;;;5026019;28;20090;-89
2022/03/15 12:29:02;;;;;;;20.55;7.47;;;10.70;99.90;;;;;;5027090;28;20136;-89
2022/03/15 12:31:46;;;;;;;25.83;7.32;;;10.80;99.90;;;;;;5027903;28;20496;-89
2022/03/15 12:34:19;;;;;;;13.50;6.78;;;10.70;99.90;;;;;;5043510;28;20057;-89
2022/03/15 12:36:51;;;;;;;21.05;7.28;;;10.90;99.90;;;;;;5025199;28;20499;-89
2022/03/15 12:39:23;;;;;;;10.18;6.68;;;11.10;99.90;;;;;;5025187;28;20049;-89
2022/03/15 12:42:03;;;;;;;8.18;6.53;;;11.20;99.90;;;;;;5020884;28;20073;-89
2022/03/15 12:44:49;;;;;;;18.27;7.03;;;11.30;99.90;;;;;;5021133;28;20051;-88
2022/03/15 12:47:26;;;;;;;36.80;20.05;;;11.10;99.90;;;;;;5033491;28;20075;-88